createdAt,value
2022-12-07T00:02:41.122Z,101799.34
2022-12-07T00:06:45.654Z,101801.97
2022-12-07T00:10:47.369Z,101796.50
2022-12-07T00:14:49.146Z,101792.25
2022-12-07T00:18:51.431Z,101787.34
2022-12-07T00:22:53.118Z,101786.16
2022-12-07T00:26:54.787Z,101779.38
2022-12-07T00:31:08.232Z,101780.53
2022-12-07T00:35:09.999Z,101772.81
2022-12-07T00:39:11.878Z,101773.56
2022-12-07T00:43:13.541Z,101771.78
2022-12-07T00:47:15.200Z,101771.00
2022-12-07T00:51:18.875Z,101777.38
2022-12-07T00:55:20.525Z,101780.28
2022-12-07T00:59:22.211Z,101784.53
2022-12-07T01:03:23.972Z,101780.09
2022-12-07T01:07:25.826Z,101777.56
2022-12-07T01:11:30.577Z,101780.84
2022-12-07T01:15:32.262Z,101782.22
2022-12-07T01:19:33.969Z,101789.78
2022-12-07T01:23:36.344Z,101765.16
2022-12-07T01:27:38.625Z,101779.66
2022-12-07T01:31:40.332Z,101776.81
2022-12-07T01:35:42.025Z,101777.88
2022-12-07T01:39:43.729Z,101775.34
2022-12-07T01:44:12.544Z,101787.72
2022-12-07T01:48:18.621Z,101777.22
2022-12-07T01:52:31.030Z,101777.03
2022-12-07T01:56:33.582Z,101786.44
2022-12-07T02:00:35.580Z,101779.28
2022-12-07T02:04:37.405Z,101770.38
2022-12-07T02:08:39.312Z,101774.72
2022-12-07T02:12:41.514Z,101771.97
2022-12-07T02:16:55.056Z,101760.31
2022-12-07T02:21:06.786Z,101757.78
2022-12-07T02:25:34.675Z,101746.44
2022-12-07T02:29:51.176Z,101742.22
2022-12-07T02:34:05.470Z,101750.16
2022-12-07T02:38:35.996Z,101740.00
2022-12-07T02:43:01.237Z,101741.34
2022-12-07T02:47:06.840Z,101746.75
2022-12-07T02:51:08.890Z,101749.47
2022-12-07T02:55:10.785Z,101748.75
2022-12-07T02:59:21.866Z,101744.63
2022-12-07T03:03:24.395Z,101744.81
2022-12-07T03:07:40.593Z,101738.03
2022-12-07T03:11:59.818Z,101739.28
2022-12-07T03:16:33.872Z,101749.97
2022-12-07T03:20:38.246Z,101757.59
2022-12-07T03:24:42.753Z,101743.53
2022-12-07T03:28:50.184Z,101741.41
2022-12-07T03:33:00.965Z,101754.25
2022-12-07T03:37:13.402Z,101730.38
2022-12-07T03:41:24.759Z,101731.41
2022-12-07T03:45:39.800Z,101726.03
2022-12-07T03:49:56.264Z,101721.47
2022-12-07T03:54:22.811Z,101724.13
2022-12-07T03:58:25.853Z,101722.75
2022-12-07T04:02:30.061Z,101718.63
2022-12-07T04:06:31.871Z,101718.06
2022-12-07T04:10:33.620Z,101713.75
2022-12-07T04:14:35.358Z,101712.06
2022-12-07T04:18:37.008Z,101714.69
2022-12-07T04:22:38.819Z,101723.34
2022-12-07T04:26:41.104Z,101748.78
2022-12-07T04:30:42.797Z,101742.94
2022-12-07T04:34:44.465Z,101720.19
2022-12-07T04:38:46.216Z,101702.63
2022-12-07T04:42:47.873Z,101709.41
2022-12-07T04:46:49.895Z,101701.47
2022-12-07T04:50:51.618Z,101705.09
2022-12-07T04:54:53.356Z,101706.84
2022-12-07T04:58:55.525Z,101695.53
2022-12-07T05:02:57.393Z,101692.13
2022-12-07T05:06:59.332Z,101687.16
2022-12-07T05:11:01.901Z,101680.19
2022-12-07T05:15:04.091Z,101686.44
2022-12-07T05:19:06.374Z,101683.88
2022-12-07T05:23:08.180Z,101690.97
2022-12-07T05:27:09.875Z,101706.63
2022-12-07T05:31:11.590Z,101710.78
2022-12-07T05:35:13.434Z,101709.50
2022-12-07T05:39:15.180Z,101700.50
2022-12-07T05:43:16.857Z,101699.78
2022-12-07T05:47:18.599Z,101695.44
2022-12-07T05:51:20.430Z,101693.00
2022-12-07T05:55:22.106Z,101688.97
2022-12-07T05:59:24.314Z,101690.97
2022-12-07T06:03:26.042Z,101681.56
2022-12-07T06:07:27.747Z,101687.03
2022-12-07T06:11:47.938Z,101682.19
2022-12-07T06:15:49.612Z,101685.13
2022-12-07T06:19:51.948Z,101681.28
2022-12-07T06:23:54.150Z,101680.13
2022-12-07T06:27:56.471Z,101690.97
2022-12-07T06:31:58.774Z,101701.53
2022-12-07T06:36:00.761Z,101715.50
2022-12-07T06:40:03.139Z,101717.97
2022-12-07T06:44:08.160Z,101710.75
2022-12-07T06:48:09.844Z,101708.69
2022-12-07T06:52:11.633Z,101714.69
2022-12-07T06:56:13.616Z,101703.41
2022-12-07T07:00:21.700Z,101701.91
2022-12-07T07:04:24.802Z,101699.47
2022-12-07T07:08:26.595Z,101704.94
2022-12-07T07:12:28.352Z,101694.94
2022-12-07T07:16:32.141Z,101705.09
2022-12-07T07:20:34.166Z,101701.03
2022-12-07T07:24:35.828Z,101711.59
2022-12-07T07:28:37.766Z,101711.72
2022-12-07T07:32:39.465Z,101716.69
2022-12-07T07:36:41.377Z,101720.44
2022-12-07T07:40:43.079Z,101704.94
2022-12-07T07:44:44.875Z,101705.38
2022-12-07T07:48:46.565Z,101699.03
2022-12-07T07:52:48.823Z,101702.63
2022-12-07T07:56:50.654Z,101706.22
2022-12-07T08:00:52.640Z,101696.69
2022-12-07T08:04:54.439Z,101701.16
2022-12-07T08:08:56.119Z,101710.47
2022-12-07T08:13:13.196Z,101718.56
2022-12-07T08:17:14.854Z,101732.09
2022-12-07T08:21:17.210Z,101751.78
2022-12-07T08:25:19.250Z,101729.03
2022-12-07T08:29:21.785Z,101712.53
2022-12-07T08:33:24.090Z,101718.47
2022-12-07T08:37:25.807Z,101712.88
2022-12-07T08:41:27.499Z,101710.97
2022-12-07T08:45:29.368Z,101705.78
2022-12-07T08:49:42.014Z,101712.66
2022-12-07T08:53:44.719Z,101712.06
2022-12-07T08:57:46.604Z,101711.41
2022-12-07T09:01:48.404Z,101727.00
2022-12-07T09:05:50.444Z,101717.25
2022-12-07T09:09:52.220Z,101716.31
2022-12-07T09:13:53.974Z,101713.66
2022-12-07T09:17:58.234Z,101711.78
2022-12-07T09:21:59.951Z,101709.84
2022-12-07T09:26:10.396Z,101717.78
2022-12-07T09:30:13.072Z,101710.81
2022-12-07T09:34:14.849Z,101712.81
2022-12-07T09:38:17.187Z,101717.25
2022-12-07T09:42:42.171Z,101715.13
2022-12-07T09:46:44.970Z,101711.13
2022-12-07T09:50:49.453Z,101700.22
2022-12-07T09:54:52.333Z,101700.44
2022-12-07T09:59:04.187Z,101705.63
2022-12-07T10:03:05.907Z,101712.69
2022-12-07T10:07:07.638Z,101709.63
2022-12-07T10:11:11.588Z,101702.91
2022-12-07T10:15:14.521Z,101693.59
2022-12-07T10:19:25.224Z,101693.03
2022-12-07T10:23:26.971Z,101696.09
2022-12-07T10:27:33.557Z,101690.38
2022-12-07T10:31:40.511Z,101679.00
2022-12-07T10:35:44.767Z,101673.84
2022-12-07T10:39:51.377Z,101681.66
2022-12-07T10:43:56.434Z,101663.13
2022-12-07T10:48:12.943Z,101661.31
2022-12-07T10:52:23.617Z,101657.72
2022-12-07T10:56:45.107Z,101654.94
2022-12-07T11:01:02.132Z,101643.91
2022-12-07T11:05:06.921Z,101644.31
2022-12-07T11:09:51.836Z,101640.13
2022-12-07T11:13:52.780Z,101630.66
2022-12-07T11:18:23.325Z,101631.03
2022-12-07T11:22:54.751Z,101625.91
2022-12-07T11:27:07.306Z,101616.66
2022-12-07T11:31:29.006Z,101614.25
2022-12-07T11:35:39.426Z,101608.28
2022-12-07T11:40:04.946Z,101608.53
2022-12-07T11:44:09.682Z,101602.97
2022-12-07T11:48:23.885Z,101595.72
2022-12-07T11:52:44.528Z,101598.53
2022-12-07T11:56:51.108Z,101604.91
2022-12-07T12:01:05.987Z,101594.63
2022-12-07T12:05:22.047Z,101595.63
2022-12-07T12:09:52.004Z,101593.47
2022-12-07T12:18:46.133Z,101584.28
2022-12-07T12:22:55.223Z,101580.19
2022-12-07T12:27:05.540Z,101574.88
2022-12-07T12:31:21.977Z,101572.84
2022-12-07T12:35:29.757Z,101570.94
2022-12-07T12:39:31.534Z,101565.81
2022-12-07T12:43:50.476Z,101552.06
2022-12-07T12:47:57.125Z,101554.13
2022-12-07T12:52:01.264Z,101546.28
2022-12-07T12:56:41.914Z,101565.34
2022-12-07T13:00:43.676Z,101554.25
2022-12-07T13:05:05.303Z,101555.75
2022-12-07T13:09:22.596Z,101552.13
2022-12-07T13:13:32.005Z,101555.13
2022-12-07T13:17:33.749Z,101538.97
2022-12-07T13:21:35.449Z,101530.28
2022-12-07T13:25:55.500Z,101530.00
2022-12-07T13:30:00.585Z,101526.72
2022-12-07T13:34:04.274Z,101520.38
2022-12-07T13:38:26.063Z,101514.63
2022-12-07T13:42:33.409Z,101531.47
2022-12-07T13:47:08.073Z,101534.81
2022-12-07T13:51:19.282Z,101520.75
2022-12-07T13:55:21.060Z,101485.50
2022-12-07T13:59:26.416Z,101490.78
2022-12-07T14:03:32.524Z,101480.00
2022-12-07T14:07:35.375Z,101479.78
2022-12-07T14:11:38.575Z,101483.13
2022-12-07T14:15:43.169Z,101468.09
2022-12-07T14:19:48.906Z,101479.41
2022-12-07T14:24:23.565Z,101467.75
2022-12-07T14:28:37.035Z,101464.03
2022-12-07T14:32:39.007Z,101462.84
2022-12-07T14:36:40.969Z,101460.19
2022-12-07T14:40:43.025Z,101456.56
2022-12-07T14:44:44.920Z,101452.16
2022-12-07T14:53:25.461Z,101451.19
2022-12-07T14:57:27.234Z,101447.91
2022-12-07T15:01:28.925Z,101442.63
2022-12-07T15:05:30.904Z,101438.41
2022-12-07T15:09:33.068Z,101441.88
2022-12-07T15:13:53.412Z,101438.53
2022-12-07T15:17:55.775Z,101435.88
2022-12-07T15:21:58.259Z,101434.81
2022-12-07T15:26:00.008Z,101454.28
2022-12-07T15:30:01.705Z,101450.91
2022-12-07T15:34:04.796Z,101435.34
2022-12-07T15:38:06.587Z,101432.22
2022-12-07T15:42:09.034Z,101426.88
2022-12-07T15:46:10.765Z,101431.16
2022-12-07T15:50:15.950Z,101420.81
2022-12-07T15:54:22.448Z,101414.03
2022-12-07T15:58:24.162Z,101414.28
2022-12-07T16:02:26.596Z,101399.25
2022-12-07T16:06:28.553Z,101401.97
2022-12-07T16:10:30.320Z,101395.00
2022-12-07T16:14:34.294Z,101391.53
2022-12-07T16:18:36.163Z,101392.38
2022-12-07T16:22:37.864Z,101386.84
2022-12-07T16:26:40.908Z,101393.94
2022-12-07T16:30:45.723Z,101384.22
2022-12-07T16:34:47.488Z,101384.91
2022-12-07T16:38:52.245Z,101381.13
2022-12-07T16:42:54.084Z,101365.25
2022-12-07T16:46:55.872Z,101367.03
2022-12-07T16:50:57.813Z,101362.81
2022-12-07T16:54:59.875Z,101358.59
2022-12-07T16:59:02.293Z,101356.06
2022-12-07T17:03:05.173Z,101351.72
2022-12-07T17:07:07.356Z,101350.88
2022-12-07T17:11:14.781Z,101348.13
2022-12-07T17:15:21.848Z,101347.88
2022-12-07T17:19:23.558Z,101348.41
2022-12-07T17:23:27.080Z,101351.75
2022-12-07T17:27:28.955Z,101345.28
2022-12-07T17:31:30.911Z,101340.72
2022-12-07T17:35:32.624Z,101328.25
2022-12-07T17:39:34.343Z,101330.75
2022-12-07T17:43:36.029Z,101331.59
2022-12-07T17:47:38.526Z,101325.34
2022-12-07T17:51:59.072Z,101320.78
2022-12-07T17:56:27.671Z,101326.19
2022-12-07T18:00:22.758Z,101324.63
2022-12-07T18:04:24.874Z,101322.94
2022-12-07T18:08:26.599Z,101322.94
2022-12-07T18:12:28.488Z,101324.84
2022-12-07T18:16:33.099Z,101320.00
2022-12-07T18:20:34.880Z,101317.00
2022-12-07T18:24:38.256Z,101312.03
2022-12-07T18:28:41.437Z,101314.69
2022-12-07T18:32:43.150Z,101310.34
2022-12-07T18:36:47.790Z,101303.38
2022-12-07T18:40:49.601Z,101302.41
2022-12-07T18:44:51.309Z,101300.59
2022-12-07T18:48:53.109Z,101294.47
2022-12-07T18:52:59.422Z,101288.34
2022-12-07T18:57:01.133Z,101297.34
2022-12-07T19:01:03.041Z,101284.13
2022-12-07T19:05:05.354Z,101287.94
2022-12-07T19:09:13.705Z,101296.03
2022-12-07T19:13:15.476Z,101294.44
2022-12-07T19:17:17.639Z,101287.47
2022-12-07T19:21:19.411Z,101288.44
2022-12-07T19:25:21.191Z,101278.06
2022-12-07T19:29:22.952Z,101270.25
2022-12-07T19:33:24.730Z,101272.03
2022-12-07T19:37:26.612Z,101273.00
2022-12-07T19:41:34.284Z,101279.25
2022-12-07T19:45:36.148Z,101273.44
2022-12-07T19:49:38.021Z,101247.84
2022-12-07T19:53:39.743Z,101243.44
2022-12-07T19:57:41.464Z,101233.06
2022-12-07T20:01:43.810Z,101235.81
2022-12-07T20:05:45.651Z,101242.06
2022-12-07T20:09:47.382Z,101229.91
2022-12-07T20:13:49.114Z,101223.78
2022-12-07T20:17:50.847Z,101217.78
2022-12-07T20:21:53.037Z,101221.16
2022-12-07T20:25:55.573Z,101217.66
2022-12-07T20:29:57.280Z,101208.75
2022-12-07T20:34:00.600Z,101200.81
2022-12-07T20:38:02.332Z,101186.78
2022-12-07T20:42:22.839Z,101195.91
2022-12-07T20:46:24.728Z,101177.75
2022-12-07T20:50:26.507Z,101190.22
2022-12-07T20:54:28.473Z,101180.72
2022-12-07T20:58:30.498Z,101176.28
2022-12-07T21:02:32.962Z,101179.16
2022-12-07T21:06:34.782Z,101178.19
2022-12-07T21:10:36.607Z,101186.13
2022-12-07T21:14:42.052Z,101187.56
2022-12-07T21:18:46.470Z,101189.28
2022-12-07T21:22:48.164Z,101187.56
2022-12-07T21:26:49.900Z,101179.41
2022-12-07T21:31:12.504Z,101166.94
2022-12-07T21:35:14.949Z,101154.44
2022-12-07T21:39:17.811Z,101147.25
2022-12-07T21:43:19.636Z,101147.94
2022-12-07T21:47:21.389Z,101147.25
2022-12-07T21:51:25.100Z,101133.06
2022-12-07T21:55:26.796Z,101146.03
2022-12-07T21:59:28.575Z,101154.06
2022-12-07T22:03:30.475Z,101154.19
2022-12-07T22:07:33.343Z,101154.19
2022-12-07T22:11:35.397Z,101148.91
2022-12-07T22:15:40.939Z,101133.06
2022-12-07T22:19:42.793Z,101118.16
2022-12-07T22:23:45.439Z,101115.50
2022-12-07T22:27:47.912Z,101115.75
2022-12-07T22:31:53.715Z,101117.78
2022-12-07T22:35:55.916Z,101104.78
2022-12-07T22:39:58.038Z,101105.88
2022-12-07T22:44:00.982Z,101100.59
2022-12-07T22:48:02.670Z,101093.59
2022-12-07T22:52:04.612Z,101096.25
2022-12-07T22:56:06.605Z,101088.53
2022-12-07T23:00:09.289Z,101083.50
2022-12-07T23:04:11.359Z,101084.56
2022-12-07T23:08:13.261Z,101080.34
2022-12-07T23:12:33.596Z,101071.50
2022-12-07T23:16:35.455Z,101064.50
2022-12-07T23:20:37.268Z,101065.34
2022-12-07T23:24:39.001Z,101052.03
2022-12-07T23:28:40.692Z,101057.31
2022-12-07T23:32:42.475Z,101061.03
2022-12-07T23:36:44.870Z,101062.00
2022-12-07T23:40:46.547Z,101054.91
2022-12-07T23:44:48.260Z,101031.72
2022-12-07T23:48:51.566Z,101034.84
2022-12-07T23:52:53.220Z,101030.28
2022-12-07T23:56:54.927Z,101018.97
